sensor_id;sensor_type;location;lat;lon;timestamp;P1;durP1;ratioP1;P2;durP2;ratioP2
23519;SDS011;11936;50.820;4.336;2023-05-07T00:00:19;10.15;;;3.00;;
23519;SDS011;11936;50.820;4.336;2023-05-07T00:02:45;7.00;;;3.00;;
23519;SDS011;11936;50.820;4.336;2023-05-07T00:05:11;7.72;;;2.85;;
23519;SDS011;11936;50.820;4.336;2023-05-07T00:07:37;7.28;;;3.00;;
23519;SDS011;11936;50.820;4.336;2023-05-07T00:10:03;12.15;;;3.63;;
23519;SDS011;11936;50.820;4.336;2023-05-07T00:12:31;9.70;;;2.97;;
23519;SDS011;11936;50.820;4.336;2023-05-07T00:14:58;7.63;;;3.00;;
23519;SDS011;11936;50.820;4.336;2023-05-07T00:17:28;7.75;;;3.13;;
23519;SDS011;11936;50.820;4.336;2023-05-07T00:19:54;4.63;;;2.25;;
23519;SDS011;11936;50.820;4.336;2023-05-07T00:22:20;8.85;;;2.80;;
23519;SDS011;11936;50.820;4.336;2023-05-07T00:24:46;7.30;;;3.03;;
23519;SDS011;11936;50.820;4.336;2023-05-07T00:27:12;10.77;;;2.80;;
23519;SDS011;11936;50.820;4.336;2023-05-07T00:29:37;9.27;;;2.97;;
23519;SDS011;11936;50.820;4.336;2023-05-07T00:32:03;6.72;;;2.88;;
23519;SDS011;11936;50.820;4.336;2023-05-07T00:34:29;6.22;;;3.13;;
23519;SDS011;11936;50.820;4.336;2023-05-07T00:36:55;12.10;;;3.10;;
23519;SDS011;11936;50.820;4.336;2023-05-07T00:39:20;5.30;;;2.60;;
23519;SDS011;11936;50.820;4.336;2023-05-07T00:41:46;6.07;;;2.45;;
23519;SDS011;11936;50.820;4.336;2023-05-07T00:44:12;4.55;;;2.28;;
23519;SDS011;11936;50.820;4.336;2023-05-07T00:46:38;11.82;;;3.13;;
23519;SDS011;11936;50.820;4.336;2023-05-07T00:49:04;9.68;;;2.97;;
23519;SDS011;11936;50.820;4.336;2023-05-07T00:51:30;5.85;;;2.75;;
23519;SDS011;11936;50.820;4.336;2023-05-07T00:53:55;6.93;;;3.00;;
23519;SDS011;11936;50.820;4.336;2023-05-07T00:56:21;9.52;;;2.60;;
23519;SDS011;11936;50.820;4.336;2023-05-07T00:58:48;8.18;;;3.03;;
23519;SDS011;11936;50.820;4.336;2023-05-07T01:01:14;10.27;;;3.22;;
23519;SDS011;11936;50.820;4.336;2023-05-07T01:06:08;9.27;;;3.00;;
23519;SDS011;11936;50.820;4.336;2023-05-07T01:08:37;6.55;;;2.17;;
23519;SDS011;11936;50.820;4.336;2023-05-07T01:11:04;12.35;;;3.63;;
23519;SDS011;11936;50.820;4.336;2023-05-07T01:13:32;7.78;;;3.05;;
23519;SDS011;11936;50.820;4.336;2023-05-07T01:15:59;9.10;;;3.03;;
23519;SDS011;11936;50.820;4.336;2023-05-07T01:18:25;8.10;;;3.17;;
23519;SDS011;11936;50.820;4.336;2023-05-07T01:20:51;9.70;;;2.78;;
23519;SDS011;11936;50.820;4.336;2023-05-07T01:23:17;9.60;;;3.42;;
23519;SDS011;11936;50.820;4.336;2023-05-07T01:25:50;8.60;;;2.83;;
23519;SDS011;11936;50.820;4.336;2023-05-07T01:28:19;9.45;;;2.72;;
23519;SDS011;11936;50.820;4.336;2023-05-07T01:30:46;5.68;;;2.45;;
23519;SDS011;11936;50.820;4.336;2023-05-07T01:33:17;7.00;;;2.40;;
23519;SDS011;11936;50.820;4.336;2023-05-07T01:35:47;6.63;;;2.70;;
23519;SDS011;11936;50.820;4.336;2023-05-07T01:38:15;6.15;;;2.50;;
23519;SDS011;11936;50.820;4.336;2023-05-07T01:40:41;10.35;;;2.83;;
23519;SDS011;11936;50.820;4.336;2023-05-07T01:43:07;10.32;;;3.03;;
23519;SDS011;11936;50.820;4.336;2023-05-07T01:45:34;11.13;;;2.75;;
23519;SDS011;11936;50.820;4.336;2023-05-07T01:48:01;4.57;;;2.58;;
23519;SDS011;11936;50.820;4.336;2023-05-07T01:50:28;6.30;;;2.88;;
23519;SDS011;11936;50.820;4.336;2023-05-07T01:52:54;7.85;;;2.40;;
23519;SDS011;11936;50.820;4.336;2023-05-07T01:55:20;9.43;;;3.03;;
23519;SDS011;11936;50.820;4.336;2023-05-07T01:57:46;9.07;;;2.80;;
23519;SDS011;11936;50.820;4.336;2023-05-07T02:00:12;6.53;;;2.90;;
23519;SDS011;11936;50.820;4.336;2023-05-07T02:02:38;10.30;;;2.67;;
23519;SDS011;11936;50.820;4.336;2023-05-07T02:05:03;10.57;;;2.65;;
23519;SDS011;11936;50.820;4.336;2023-05-07T02:07:29;7.97;;;2.92;;
23519;SDS011;11936;50.820;4.336;2023-05-07T02:09:55;9.30;;;2.90;;
23519;SDS011;11936;50.820;4.336;2023-05-07T02:12:22;11.05;;;2.65;;
23519;SDS011;11936;50.820;4.336;2023-05-07T02:14:48;9.93;;;3.00;;
23519;SDS011;11936;50.820;4.336;2023-05-07T02:17:14;9.68;;;2.53;;
23519;SDS011;11936;50.820;4.336;2023-05-07T02:19:39;10.18;;;2.78;;
23519;SDS011;11936;50.820;4.336;2023-05-07T02:22:05;9.25;;;2.97;;
23519;SDS011;11936;50.820;4.336;2023-05-07T02:24:31;12.15;;;3.33;;
23519;SDS011;11936;50.820;4.336;2023-05-07T02:26:56;6.07;;;2.58;;
23519;SDS011;11936;50.820;4.336;2023-05-07T02:29:22;8.57;;;2.63;;
23519;SDS011;11936;50.820;4.336;2023-05-07T02:31:48;9.15;;;2.97;;
23519;SDS011;11936;50.820;4.336;2023-05-07T02:34:16;8.23;;;3.08;;
23519;SDS011;11936;50.820;4.336;2023-05-07T02:36:42;11.48;;;3.50;;
23519;SDS011;11936;50.820;4.336;2023-05-07T02:39:08;8.77;;;2.65;;
23519;SDS011;11936;50.820;4.336;2023-05-07T02:41:33;7.53;;;2.80;;
23519;SDS011;11936;50.820;4.336;2023-05-07T02:43:59;6.20;;;2.92;;
23519;SDS011;11936;50.820;4.336;2023-05-07T02:46:25;11.27;;;3.75;;
23519;SDS011;11936;50.820;4.336;2023-05-07T02:48:50;9.80;;;4.05;;
23519;SDS011;11936;50.820;4.336;2023-05-07T02:51:19;8.88;;;3.92;;
23519;SDS011;11936;50.820;4.336;2023-05-07T02:53:45;13.35;;;4.30;;
23519;SDS011;11936;50.820;4.336;2023-05-07T02:56:11;9.10;;;3.95;;
23519;SDS011;11936;50.820;4.336;2023-05-07T02:58:37;12.98;;;3.58;;
23519;SDS011;11936;50.820;4.336;2023-05-07T03:01:07;10.40;;;3.28;;
23519;SDS011;11936;50.820;4.336;2023-05-07T03:03:33;9.80;;;3.05;;
23519;SDS011;11936;50.820;4.336;2023-05-07T03:05:59;12.98;;;3.15;;
23519;SDS011;11936;50.820;4.336;2023-05-07T03:08:25;7.65;;;3.60;;
23519;SDS011;11936;50.820;4.336;2023-05-07T03:10:50;7.60;;;2.42;;
23519;SDS011;11936;50.820;4.336;2023-05-07T03:13:16;11.27;;;2.95;;
23519;SDS011;11936;50.820;4.336;2023-05-07T03:15:42;8.13;;;2.90;;
23519;SDS011;11936;50.820;4.336;2023-05-07T03:18:08;6.30;;;3.13;;
23519;SDS011;11936;50.820;4.336;2023-05-07T03:20:33;8.50;;;3.65;;
23519;SDS011;11936;50.820;4.336;2023-05-07T03:22:59;10.40;;;3.28;;
23519;SDS011;11936;50.820;4.336;2023-05-07T03:25:25;9.57;;;3.97;;
23519;SDS011;11936;50.820;4.336;2023-05-07T03:27:50;7.10;;;2.90;;
23519;SDS011;11936;50.820;4.336;2023-05-07T03:30:16;9.30;;;2.90;;
23519;SDS011;11936;50.820;4.336;2023-05-07T03:32:42;8.77;;;3.35;;
23519;SDS011;11936;50.820;4.336;2023-05-07T03:35:08;13.63;;;3.78;;
23519;SDS011;11936;50.820;4.336;2023-05-07T03:37:33;12.27;;;3.88;;
23519;SDS011;11936;50.820;4.336;2023-05-07T03:39:59;8.00;;;3.75;;
23519;SDS011;11936;50.820;4.336;2023-05-07T03:42:25;15.63;;;4.55;;
23519;SDS011;11936;50.820;4.336;2023-05-07T03:44:51;7.82;;;3.55;;
23519;SDS011;11936;50.820;4.336;2023-05-07T03:47:16;10.75;;;3.78;;
23519;SDS011;11936;50.820;4.336;2023-05-07T03:49:42;10.52;;;3.78;;
23519;SDS011;11936;50.820;4.336;2023-05-07T03:52:07;8.57;;;3.72;;
23519;SDS011;11936;50.820;4.336;2023-05-07T03:54:33;9.73;;;3.40;;
23519;SDS011;11936;50.820;4.336;2023-05-07T03:56:59;6.03;;;3.00;;
23519;SDS011;11936;50.820;4.336;2023-05-07T03:59:24;8.32;;;3.42;;
23519;SDS011;11936;50.820;4.336;2023-05-07T04:01:50;8.77;;;3.17;;
23519;SDS011;11936;50.820;4.336;2023-05-07T04:04:16;7.45;;;3.33;;
23519;SDS011;11936;50.820;4.336;2023-05-07T04:06:42;7.03;;;3.00;;
23519;SDS011;11936;50.820;4.336;2023-05-07T04:09:07;11.10;;;3.50;;
23519;SDS011;11936;50.820;4.336;2023-05-07T04:11:33;10.15;;;3.58;;
23519;SDS011;11936;50.820;4.336;2023-05-07T04:14:00;8.88;;;3.63;;
23519;SDS011;11936;50.820;4.336;2023-05-07T04:16:26;10.80;;;3.75;;
23519;SDS011;11936;50.820;4.336;2023-05-07T04:18:51;8.25;;;3.63;;
23519;SDS011;11936;50.820;4.336;2023-05-07T04:21:18;10.52;;;4.07;;
23519;SDS011;11936;50.820;4.336;2023-05-07T04:23:48;7.97;;;3.40;;
23519;SDS011;11936;50.820;4.336;2023-05-07T04:26:14;10.85;;;3.63;;
23519;SDS011;11936;50.820;4.336;2023-05-07T04:28:41;9.77;;;3.25;;
23519;SDS011;11936;50.820;4.336;2023-05-07T04:31:07;8.40;;;3.15;;
23519;SDS011;11936;50.820;4.336;2023-05-07T04:33:33;7.50;;;3.20;;
23519;SDS011;11936;50.820;4.336;2023-05-07T04:36:02;6.60;;;2.88;;
23519;SDS011;11936;50.820;4.336;2023-05-07T04:38:32;11.82;;;3.45;;
23519;SDS011;11936;50.820;4.336;2023-05-07T04:41:04;6.90;;;3.13;;
23519;SDS011;11936;50.820;4.336;2023-05-07T04:43:30;7.43;;;3.30;;
23519;SDS011;11936;50.820;4.336;2023-05-07T04:45:56;6.60;;;3.10;;
23519;SDS011;11936;50.820;4.336;2023-05-07T04:48:22;7.95;;;3.33;;
23519;SDS011;11936;50.820;4.336;2023-05-07T04:50:48;8.02;;;2.95;;
23519;SDS011;11936;50.820;4.336;2023-05-07T04:53:17;8.15;;;3.30;;
23519;SDS011;11936;50.820;4.336;2023-05-07T04:55:43;6.75;;;3.47;;
23519;SDS011;11936;50.820;4.336;2023-05-07T04:58:09;11.32;;;3.95;;
23519;SDS011;11936;50.820;4.336;2023-05-07T05:00:34;7.82;;;4.10;;
23519;SDS011;11936;50.820;4.336;2023-05-07T05:03:00;10.23;;;3.78;;
23519;SDS011;11936;50.820;4.336;2023-05-07T05:05:26;8.27;;;3.63;;
23519;SDS011;11936;50.820;4.336;2023-05-07T05:07:51;8.60;;;4.07;;
23519;SDS011;11936;50.820;4.336;2023-05-07T05:10:17;10.38;;;3.45;;
23519;SDS011;11936;50.820;4.336;2023-05-07T05:12:43;11.05;;;4.03;;
23519;SDS011;11936;50.820;4.336;2023-05-07T05:15:10;7.80;;;3.72;;
23519;SDS011;11936;50.820;4.336;2023-05-07T05:17:37;11.18;;;3.72;;
23519;SDS011;11936;50.820;4.336;2023-05-07T05:20:03;9.30;;;4.05;;
23519;SDS011;11936;50.820;4.336;2023-05-07T05:22:29;9.75;;;4.40;;
23519;SDS011;11936;50.820;4.336;2023-05-07T05:24:56;8.98;;;4.13;;
23519;SDS011;11936;50.820;4.336;2023-05-07T05:27:22;11.10;;;4.00;;
23519;SDS011;11936;50.820;4.336;2023-05-07T05:29:47;6.97;;;4.15;;
23519;SDS011;11936;50.820;4.336;2023-05-07T05:32:13;10.70;;;3.72;;
23519;SDS011;11936;50.820;4.336;2023-05-07T05:34:39;16.13;;;5.47;;
23519;SDS011;11936;50.820;4.336;2023-05-07T05:37:05;13.60;;;4.30;;
23519;SDS011;11936;50.820;4.336;2023-05-07T05:39:30;9.05;;;4.03;;
23519;SDS011;11936;50.820;4.336;2023-05-07T05:41:56;8.77;;;3.67;;
23519;SDS011;11936;50.820;4.336;2023-05-07T05:44:21;11.02;;;4.18;;
23519;SDS011;11936;50.820;4.336;2023-05-07T05:46:47;11.40;;;4.00;;
23519;SDS011;11936;50.820;4.336;2023-05-07T05:49:14;11.05;;;4.38;;
23519;SDS011;11936;50.820;4.336;2023-05-07T05:51:40;10.30;;;3.97;;
23519;SDS011;11936;50.820;4.336;2023-05-07T05:54:06;11.20;;;4.47;;
23519;SDS011;11936;50.820;4.336;2023-05-07T05:56:31;6.65;;;3.70;;
23519;SDS011;11936;50.820;4.336;2023-05-07T05:58:57;8.18;;;3.97;;
23519;SDS011;11936;50.820;4.336;2023-05-07T06:01:23;9.02;;;4.07;;
23519;SDS011;11936;50.820;4.336;2023-05-07T06:03:49;9.63;;;4.90;;
23519;SDS011;11936;50.820;4.336;2023-05-07T06:06:15;9.00;;;4.47;;
23519;SDS011;11936;50.820;4.336;2023-05-07T06:08:40;13.15;;;4.30;;
23519;SDS011;11936;50.820;4.336;2023-05-07T06:11:06;10.23;;;4.60;;
23519;SDS011;11936;50.820;4.336;2023-05-07T06:13:32;11.77;;;5.15;;
23519;SDS011;11936;50.820;4.336;2023-05-07T06:15:58;20.02;;;5.18;;
23519;SDS011;11936;50.820;4.336;2023-05-07T06:18:23;10.48;;;4.85;;
23519;SDS011;11936;50.820;4.336;2023-05-07T06:20:50;13.70;;;5.07;;
23519;SDS011;11936;50.820;4.336;2023-05-07T06:23:16;10.50;;;4.95;;
23519;SDS011;11936;50.820;4.336;2023-05-07T06:25:45;15.60;;;5.00;;
23519;SDS011;11936;50.820;4.336;2023-05-07T06:28:13;10.68;;;4.78;;
23519;SDS011;11936;50.820;4.336;2023-05-07T06:30:39;13.82;;;4.93;;
23519;SDS011;11936;50.820;4.336;2023-05-07T06:33:05;12.80;;;5.47;;
23519;SDS011;11936;50.820;4.336;2023-05-07T06:35:31;12.48;;;5.28;;
23519;SDS011;11936;50.820;4.336;2023-05-07T06:37:56;10.50;;;4.28;;
23519;SDS011;11936;50.820;4.336;2023-05-07T06:40:22;7.45;;;4.03;;
23519;SDS011;11936;50.820;4.336;2023-05-07T06:42:48;11.77;;;4.07;;
23519;SDS011;11936;50.820;4.336;2023-05-07T06:45:13;5.88;;;3.80;;
23519;SDS011;11936;50.820;4.336;2023-05-07T06:47:39;14.50;;;4.97;;
23519;SDS011;11936;50.820;4.336;2023-05-07T06:50:05;9.93;;;4.07;;
23519;SDS011;11936;50.820;4.336;2023-05-07T06:52:31;7.60;;;4.53;;
23519;SDS011;11936;50.820;4.336;2023-05-07T06:54:56;6.78;;;4.22;;
23519;SDS011;11936;50.820;4.336;2023-05-07T06:57:22;6.78;;;4.50;;
23519;SDS011;11936;50.820;4.336;2023-05-07T06:59:48;11.57;;;4.38;;
23519;SDS011;11936;50.820;4.336;2023-05-07T07:02:14;11.65;;;4.85;;
23519;SDS011;11936;50.820;4.336;2023-05-07T07:04:40;7.28;;;4.00;;
23519;SDS011;11936;50.820;4.336;2023-05-07T07:07:06;9.15;;;4.15;;
23519;SDS011;11936;50.820;4.336;2023-05-07T07:09:32;8.60;;;4.07;;
23519;SDS011;11936;50.820;4.336;2023-05-07T07:11:58;11.15;;;4.53;;
23519;SDS011;11936;50.820;4.336;2023-05-07T07:14:24;9.23;;;4.47;;
23519;SDS011;11936;50.820;4.336;2023-05-07T07:16:49;8.60;;;4.05;;
23519;SDS011;11936;50.820;4.336;2023-05-07T07:19:15;7.20;;;3.90;;
23519;SDS011;11936;50.820;4.336;2023-05-07T07:21:41;9.93;;;4.75;;
23519;SDS011;11936;50.820;4.336;2023-05-07T07:24:07;7.40;;;4.18;;
23519;SDS011;11936;50.820;4.336;2023-05-07T07:26:33;8.15;;;3.90;;
23519;SDS011;11936;50.820;4.336;2023-05-07T07:28:58;10.85;;;4.53;;
23519;SDS011;11936;50.820;4.336;2023-05-07T07:31:24;10.60;;;4.47;;
23519;SDS011;11936;50.820;4.336;2023-05-07T07:33:50;11.05;;;4.63;;
23519;SDS011;11936;50.820;4.336;2023-05-07T07:36:15;10.15;;;4.40;;
23519;SDS011;11936;50.820;4.336;2023-05-07T07:38:41;9.82;;;4.20;;
23519;SDS011;11936;50.820;4.336;2023-05-07T07:41:10;10.77;;;4.15;;
23519;SDS011;11936;50.820;4.336;2023-05-07T07:46:01;7.82;;;4.32;;
23519;SDS011;11936;50.820;4.336;2023-05-07T07:48:27;9.60;;;4.40;;
23519;SDS011;11936;50.820;4.336;2023-05-07T07:50:52;9.95;;;4.38;;
23519;SDS011;11936;50.820;4.336;2023-05-07T07:53:18;8.73;;;4.38;;
23519;SDS011;11936;50.820;4.336;2023-05-07T07:55:44;14.48;;;4.38;;
23519;SDS011;11936;50.820;4.336;2023-05-07T07:58:10;13.20;;;4.18;;
23519;SDS011;11936;50.820;4.336;2023-05-07T08:00:36;12.50;;;4.32;;
23519;SDS011;11936;50.820;4.336;2023-05-07T08:03:01;11.43;;;4.45;;
23519;SDS011;11936;50.820;4.336;2023-05-07T08:05:28;8.20;;;4.10;;
23519;SDS011;11936;50.820;4.336;2023-05-07T08:07:54;7.97;;;4.40;;
23519;SDS011;11936;50.820;4.336;2023-05-07T08:10:20;10.82;;;5.03;;
23519;SDS011;11936;50.820;4.336;2023-05-07T08:12:47;16.88;;;4.70;;
23519;SDS011;11936;50.820;4.336;2023-05-07T08:15:13;7.90;;;3.95;;
23519;SDS011;11936;50.820;4.336;2023-05-07T08:17:41;10.90;;;4.00;;
23519;SDS011;11936;50.820;4.336;2023-05-07T08:20:14;7.65;;;3.97;;
23519;SDS011;11936;50.820;4.336;2023-05-07T08:22:40;8.80;;;4.03;;
23519;SDS011;11936;50.820;4.336;2023-05-07T08:25:06;8.00;;;4.28;;
23519;SDS011;11936;50.820;4.336;2023-05-07T08:27:32;8.13;;;3.95;;
23519;SDS011;11936;50.820;4.336;2023-05-07T08:29:57;50.75;;;6.13;;
23519;SDS011;11936;50.820;4.336;2023-05-07T08:32:23;28.83;;;5.13;;
23519;SDS011;11936;50.820;4.336;2023-05-07T08:34:49;6.28;;;4.00;;
23519;SDS011;11936;50.820;4.336;2023-05-07T08:37:15;12.32;;;4.07;;
23519;SDS011;11936;50.820;4.336;2023-05-07T08:39:40;10.40;;;4.07;;
23519;SDS011;11936;50.820;4.336;2023-05-07T08:42:06;7.97;;;3.58;;
23519;SDS011;11936;50.820;4.336;2023-05-07T08:44:33;8.45;;;3.75;;
23519;SDS011;11936;50.820;4.336;2023-05-07T08:47:00;8.10;;;4.10;;
23519;SDS011;11936;50.820;4.336;2023-05-07T08:49:27;9.68;;;4.68;;
23519;SDS011;11936;50.820;4.336;2023-05-07T08:51:53;7.65;;;4.65;;
23519;SDS011;11936;50.820;4.336;2023-05-07T08:54:20;8.55;;;3.92;;
23519;SDS011;11936;50.820;4.336;2023-05-07T08:56:46;6.85;;;3.90;;
23519;SDS011;11936;50.820;4.336;2023-05-07T08:59:12;9.43;;;4.28;;
23519;SDS011;11936;50.820;4.336;2023-05-07T09:01:37;6.25;;;3.55;;
23519;SDS011;11936;50.820;4.336;2023-05-07T09:04:03;8.18;;;3.90;;
23519;SDS011;11936;50.820;4.336;2023-05-07T09:06:30;9.02;;;3.40;;
23519;SDS011;11936;50.820;4.336;2023-05-07T09:08:56;9.18;;;3.75;;
23519;SDS011;11936;50.820;4.336;2023-05-07T09:11:23;9.30;;;4.15;;
23519;SDS011;11936;50.820;4.336;2023-05-07T09:13:53;7.35;;;3.00;;
23519;SDS011;11936;50.820;4.336;2023-05-07T09:16:20;7.78;;;3.45;;
23519;SDS011;11936;50.820;4.336;2023-05-07T09:18:46;5.22;;;2.80;;
23519;SDS011;11936;50.820;4.336;2023-05-07T09:21:15;7.03;;;3.30;;
23519;SDS011;11936;50.820;4.336;2023-05-07T09:23:42;6.43;;;3.00;;
23519;SDS011;11936;50.820;4.336;2023-05-07T09:26:08;7.28;;;3.15;;
23519;SDS011;11936;50.820;4.336;2023-05-07T09:28:39;6.47;;;3.20;;
23519;SDS011;11936;50.820;4.336;2023-05-07T09:31:06;6.53;;;3.20;;
23519;SDS011;11936;50.820;4.336;2023-05-07T09:33:33;6.00;;;3.35;;
23519;SDS011;11936;50.820;4.336;2023-05-07T09:36:01;9.30;;;4.07;;
23519;SDS011;11936;50.820;4.336;2023-05-07T09:38:28;6.82;;;3.72;;
23519;SDS011;11936;50.820;4.336;2023-05-07T09:41:09;8.25;;;3.97;;
23519;SDS011;11936;50.820;4.336;2023-05-07T09:43:39;8.50;;;4.38;;
23519;SDS011;11936;50.820;4.336;2023-05-07T09:46:12;10.38;;;3.60;;
23519;SDS011;11936;50.820;4.336;2023-05-07T09:48:39;8.23;;;3.58;;
23519;SDS011;11936;50.820;4.336;2023-05-07T09:51:08;9.23;;;4.13;;
23519;SDS011;11936;50.820;4.336;2023-05-07T09:53:55;8.35;;;3.88;;
23519;SDS011;11936;50.820;4.336;2023-05-07T09:56:22;8.88;;;4.07;;
23519;SDS011;11936;50.820;4.336;2023-05-07T09:58:49;5.80;;;3.60;;
23519;SDS011;11936;50.820;4.336;2023-05-07T10:01:17;6.18;;;3.70;;
23519;SDS011;11936;50.820;4.336;2023-05-07T10:03:47;8.23;;;3.70;;
23519;SDS011;11936;50.820;4.336;2023-05-07T10:06:15;9.15;;;3.80;;
23519;SDS011;11936;50.820;4.336;2023-05-07T10:08:42;5.82;;;3.10;;
23519;SDS011;11936;50.820;4.336;2023-05-07T10:11:08;9.32;;;3.03;;
23519;SDS011;11936;50.820;4.336;2023-05-07T10:13:34;5.80;;;3.30;;
23519;SDS011;11936;50.820;4.336;2023-05-07T10:16:02;9.05;;;3.78;;
23519;SDS011;11936;50.820;4.336;2023-05-07T10:18:30;13.82;;;4.32;;
23519;SDS011;11936;50.820;4.336;2023-05-07T10:21:07;5.45;;;3.03;;
23519;SDS011;11936;50.820;4.336;2023-05-07T10:23:40;8.32;;;4.15;;
23519;SDS011;11936;50.820;4.336;2023-05-07T10:26:28;6.40;;;3.67;;
23519;SDS011;11936;50.820;4.336;2023-05-07T10:28:58;9.32;;;4.20;;
23519;SDS011;11936;50.820;4.336;2023-05-07T10:34:13;7.80;;;4.55;;
23519;SDS011;11936;50.820;4.336;2023-05-07T10:36:45;8.48;;;5.03;;
23519;SDS011;11936;50.820;4.336;2023-05-07T10:39:11;5.93;;;3.67;;
23519;SDS011;11936;50.820;4.336;2023-05-07T10:41:38;5.32;;;3.30;;
23519;SDS011;11936;50.820;4.336;2023-05-07T10:44:04;5.15;;;3.55;;
23519;SDS011;11936;50.820;4.336;2023-05-07T10:46:30;6.28;;;3.97;;
23519;SDS011;11936;50.820;4.336;2023-05-07T10:51:25;9.90;;;3.58;;
23519;SDS011;11936;50.820;4.336;2023-05-07T10:54:18;4.43;;;3.20;;
23519;SDS011;11936;50.820;4.336;2023-05-07T10:56:44;5.22;;;2.38;;
23519;SDS011;11936;50.820;4.336;2023-05-07T11:12:17;5.22;;;2.35;;
23519;SDS011;11936;50.820;4.336;2023-05-07T11:15:01;4.30;;;2.30;;
23519;SDS011;11936;50.820;4.336;2023-05-07T11:17:53;4.70;;;2.38;;
23519;SDS011;11936;50.820;4.336;2023-05-07T11:24:06;4.07;;;2.65;;
23519;SDS011;11936;50.820;4.336;2023-05-07T11:26:06;7.38;;;3.42;;
23519;SDS011;11936;50.820;4.336;2023-05-07T11:28:39;4.20;;;2.38;;
23519;SDS011;11936;50.820;4.336;2023-05-07T11:31:07;4.55;;;3.05;;
23519;SDS011;11936;50.820;4.336;2023-05-07T11:33:33;6.50;;;3.13;;
23519;SDS011;11936;50.820;4.336;2023-05-07T11:35:59;6.05;;;3.45;;
23519;SDS011;11936;50.820;4.336;2023-05-07T11:38:27;7.72;;;3.47;;
23519;SDS011;11936;50.820;4.336;2023-05-07T11:40:55;3.85;;;3.08;;
23519;SDS011;11936;50.820;4.336;2023-05-07T11:43:22;5.20;;;3.33;;
23519;SDS011;11936;50.820;4.336;2023-05-07T11:45:48;5.03;;;2.67;;
23519;SDS011;11936;50.820;4.336;2023-05-07T11:48:14;5.00;;;3.42;;
23519;SDS011;11936;50.820;4.336;2023-05-07T11:53:26;3.90;;;2.67;;
23519;SDS011;11936;50.820;4.336;2023-05-07T11:55:52;5.45;;;2.42;;
23519;SDS011;11936;50.820;4.336;2023-05-07T11:58:22;5.75;;;2.75;;
23519;SDS011;11936;50.820;4.336;2023-05-07T12:00:52;5.18;;;2.85;;
23519;SDS011;11936;50.820;4.336;2023-05-07T12:03:19;6.85;;;3.05;;
23519;SDS011;11936;50.820;4.336;2023-05-07T12:05:47;6.57;;;2.90;;
23519;SDS011;11936;50.820;4.336;2023-05-07T12:08:17;2.55;;;2.22;;
23519;SDS011;11936;50.820;4.336;2023-05-07T12:10:44;4.40;;;2.35;;
23519;SDS011;11936;50.820;4.336;2023-05-07T12:15:42;7.10;;;2.72;;
23519;SDS011;11936;50.820;4.336;2023-05-07T12:18:08;3.38;;;2.25;;
23519;SDS011;11936;50.820;4.336;2023-05-07T12:20:35;4.18;;;2.85;;
23519;SDS011;11936;50.820;4.336;2023-05-07T12:23:01;6.72;;;2.80;;
23519;SDS011;11936;50.820;4.336;2023-05-07T12:25:31;4.07;;;2.65;;
23519;SDS011;11936;50.820;4.336;2023-05-07T12:28:00;6.50;;;3.20;;
23519;SDS011;11936;50.820;4.336;2023-05-07T12:30:26;6.57;;;3.70;;
23519;SDS011;11936;50.820;4.336;2023-05-07T12:32:52;4.55;;;3.45;;
23519;SDS011;11936;50.820;4.336;2023-05-07T12:35:26;4.55;;;3.10;;
23519;SDS011;11936;50.820;4.336;2023-05-07T12:37:55;5.28;;;3.55;;
23519;SDS011;11936;50.820;4.336;2023-05-07T12:40:24;6.90;;;4.35;;
23519;SDS011;11936;50.820;4.336;2023-05-07T12:43:00;6.03;;;4.63;;
23519;SDS011;11936;50.820;4.336;2023-05-07T12:45:26;7.18;;;4.80;;
23519;SDS011;11936;50.820;4.336;2023-05-07T12:47:51;7.70;;;4.80;;
23519;SDS011;11936;50.820;4.336;2023-05-07T12:50:17;10.18;;;6.00;;
23519;SDS011;11936;50.820;4.336;2023-05-07T12:52:52;5.53;;;4.82;;
23519;SDS011;11936;50.820;4.336;2023-05-07T12:55:18;7.93;;;4.93;;
23519;SDS011;11936;50.820;4.336;2023-05-07T12:57:45;8.38;;;6.22;;
23519;SDS011;11936;50.820;4.336;2023-05-07T13:00:13;7.57;;;6.60;;
23519;SDS011;11936;50.820;4.336;2023-05-07T13:02:40;7.43;;;6.68;;
23519;SDS011;11936;50.820;4.336;2023-05-07T13:05:09;8.02;;;7.22;;
23519;SDS011;11936;50.820;4.336;2023-05-07T13:07:35;8.75;;;7.40;;
23519;SDS011;11936;50.820;4.336;2023-05-07T13:10:02;10.02;;;7.63;;
23519;SDS011;11936;50.820;4.336;2023-05-07T13:12:28;8.05;;;7.25;;
23519;SDS011;11936;50.820;4.336;2023-05-07T13:14:53;8.07;;;7.30;;
23519;SDS011;11936;50.820;4.336;2023-05-07T13:17:19;8.45;;;6.30;;
23519;SDS011;11936;50.820;4.336;2023-05-07T13:19:44;6.75;;;6.05;;
23519;SDS011;11936;50.820;4.336;2023-05-07T13:22:10;6.07;;;5.45;;
23519;SDS011;11936;50.820;4.336;2023-05-07T13:24:36;7.65;;;6.47;;
23519;SDS011;11936;50.820;4.336;2023-05-07T13:27:01;7.53;;;6.45;;
23519;SDS011;11936;50.820;4.336;2023-05-07T13:29:28;8.93;;;7.60;;
23519;SDS011;11936;50.820;4.336;2023-05-07T13:31:56;7.47;;;6.78;;
23519;SDS011;11936;50.820;4.336;2023-05-07T13:34:22;9.15;;;7.70;;
23519;SDS011;11936;50.820;4.336;2023-05-07T13:36:47;8.75;;;8.00;;
23519;SDS011;11936;50.820;4.336;2023-05-07T13:39:13;9.43;;;8.38;;
23519;SDS011;11936;50.820;4.336;2023-05-07T13:41:39;9.15;;;8.25;;
23519;SDS011;11936;50.820;4.336;2023-05-07T13:44:04;9.98;;;9.07;;
23519;SDS011;11936;50.820;4.336;2023-05-07T13:46:30;9.75;;;8.85;;
23519;SDS011;11936;50.820;4.336;2023-05-07T13:48:56;11.00;;;8.77;;
23519;SDS011;11936;50.820;4.336;2023-05-07T13:51:21;10.23;;;9.23;;
23519;SDS011;11936;50.820;4.336;2023-05-07T13:53:47;10.52;;;9.43;;
23519;SDS011;11936;50.820;4.336;2023-05-07T13:56:13;10.32;;;8.75;;
23519;SDS011;11936;50.820;4.336;2023-05-07T13:58:39;10.70;;;9.65;;
23519;SDS011;11936;50.820;4.336;2023-05-07T14:01:05;11.70;;;9.43;;
23519;SDS011;11936;50.820;4.336;2023-05-07T14:03:31;11.15;;;10.05;;
23519;SDS011;11936;50.820;4.336;2023-05-07T14:05:58;11.35;;;10.15;;
23519;SDS011;11936;50.820;4.336;2023-05-07T14:08:26;12.23;;;10.95;;
23519;SDS011;11936;50.820;4.336;2023-05-07T14:10:52;11.00;;;9.93;;
23519;SDS011;11936;50.820;4.336;2023-05-07T14:13:17;9.88;;;8.95;;
23519;SDS011;11936;50.820;4.336;2023-05-07T14:15:43;11.55;;;9.02;;
23519;SDS011;11936;50.820;4.336;2023-05-07T14:18:11;10.80;;;7.75;;
23519;SDS011;11936;50.820;4.336;2023-05-07T14:20:40;10.40;;;7.63;;
23519;SDS011;11936;50.820;4.336;2023-05-07T14:23:08;8.67;;;6.60;;
23519;SDS011;11936;50.820;4.336;2023-05-07T14:25:33;8.43;;;7.53;;
23519;SDS011;11936;50.820;4.336;2023-05-07T14:27:59;11.43;;;8.02;;
23519;SDS011;11936;50.820;4.336;2023-05-07T14:30:25;7.47;;;6.78;;
23519;SDS011;11936;50.820;4.336;2023-05-07T14:32:51;10.30;;;6.78;;
23519;SDS011;11936;50.820;4.336;2023-05-07T14:35:16;8.35;;;7.47;;
23519;SDS011;11936;50.820;4.336;2023-05-07T14:37:42;8.30;;;7.43;;
23519;SDS011;11936;50.820;4.336;2023-05-07T14:40:08;9.85;;;8.45;;
23519;SDS011;11936;50.820;4.336;2023-05-07T14:42:34;7.85;;;7.05;;
23519;SDS011;11936;50.820;4.336;2023-05-07T14:45:00;7.78;;;6.35;;
23519;SDS011;11936;50.820;4.336;2023-05-07T14:50:04;7.73;;;6.70;;
23519;SDS011;11936;50.820;4.336;2023-05-07T14:52:30;6.95;;;6.32;;
23519;SDS011;11936;50.820;4.336;2023-05-07T14:54:57;9.52;;;6.57;;
23519;SDS011;11936;50.820;4.336;2023-05-07T14:57:23;7.28;;;6.57;;
23519;SDS011;11936;50.820;4.336;2023-05-07T14:59:48;7.38;;;6.38;;
23519;SDS011;11936;50.820;4.336;2023-05-07T15:02:14;9.48;;;6.93;;
23519;SDS011;11936;50.820;4.336;2023-05-07T15:04:40;8.40;;;6.97;;
23519;SDS011;11936;50.820;4.336;2023-05-07T15:07:11;9.00;;;7.47;;
23519;SDS011;11936;50.820;4.336;2023-05-07T15:09:40;7.57;;;6.88;;
23519;SDS011;11936;50.820;4.336;2023-05-07T15:12:08;10.15;;;7.13;;
23519;SDS011;11936;50.820;4.336;2023-05-07T15:14:35;8.35;;;6.28;;